createdAt,value
2022-10-22T00:02:24.785Z,97530.16
2022-10-22T00:04:54.151Z,97526.13
2022-10-22T00:07:23.626Z,97509.16
2022-10-22T00:09:53.142Z,97516.44
2022-10-22T00:12:22.403Z,97497.75
2022-10-22T00:14:53.377Z,97512.63
2022-10-22T00:17:22.980Z,97515.47
2022-10-22T00:19:52.641Z,97517.66
2022-10-22T00:22:21.971Z,97523.34
2022-10-22T00:24:51.297Z,97528.09
2022-10-22T00:27:20.952Z,97532.41
2022-10-22T00:29:50.441Z,97523.59
2022-10-22T00:32:21.193Z,97530.81
2022-10-22T00:34:50.448Z,97525.72
2022-10-22T00:37:20.042Z,97532.03
2022-10-22T00:39:49.313Z,97520.97
2022-10-22T00:42:23.272Z,97531.69
2022-10-22T00:45:18.585Z,97529.13
2022-10-22T00:47:54.453Z,97533.22
2022-10-22T00:50:26.719Z,97521.22
2022-10-22T00:52:56.619Z,97506.94
2022-10-22T00:55:26.763Z,97515.16
2022-10-22T00:57:57.038Z,97519.09
2022-10-22T01:00:27.197Z,97509.31
2022-10-22T01:02:58.215Z,97517.97
2022-10-22T01:05:30.085Z,97504.63
2022-10-22T01:07:59.786Z,97500.72
2022-10-22T01:10:45.645Z,97504.50
2022-10-22T01:13:23.908Z,97499.78
2022-10-22T01:16:01.276Z,97512.16
2022-10-22T01:18:38.903Z,97496.13
2022-10-22T01:21:20.510Z,97486.28
2022-10-22T01:24:08.129Z,97490.56
2022-10-22T01:26:52.427Z,97491.66
2022-10-22T01:29:26.028Z,97489.72
2022-10-22T01:31:58.612Z,97469.75
2022-10-22T01:34:28.669Z,97458.88
2022-10-22T01:36:59.616Z,97451.41
2022-10-22T01:39:29.876Z,97461.94
2022-10-22T01:42:01.484Z,97454.56
2022-10-22T01:44:33.561Z,97471.34
2022-10-22T01:47:11.427Z,97449.25
2022-10-22T01:50:10.733Z,97450.59
2022-10-22T01:52:53.494Z,97440.44
2022-10-22T01:55:28.965Z,97430.72
2022-10-22T01:58:14.428Z,97431.38
2022-10-22T02:00:50.670Z,97431.66
2022-10-22T02:03:25.151Z,97419.13
2022-10-22T02:05:56.920Z,97411.09
2022-10-22T02:08:28.559Z,97402.78
2022-10-22T02:10:59.863Z,97403.06
2022-10-22T02:13:36.218Z,97413.41
2022-10-22T02:16:09.711Z,97396.81
2022-10-22T02:18:41.490Z,97409.88
2022-10-22T02:21:11.011Z,97410.41
2022-10-22T02:23:40.917Z,97411.31
2022-10-22T02:26:16.466Z,97418.84
2022-10-22T02:28:50.716Z,97420.34
2022-10-22T02:31:25.311Z,97413.53
2022-10-22T02:33:58.212Z,97411.75
2022-10-22T02:36:27.643Z,97406.06
2022-10-22T02:38:57.719Z,97401.41
2022-10-22T02:41:27.040Z,97407.56
2022-10-22T02:43:57.485Z,97406.47
2022-10-22T02:46:28.846Z,97390.31
2022-10-22T02:49:02.230Z,97392.03
2022-10-22T02:51:31.758Z,97393.88
2022-10-22T02:54:00.864Z,97392.38
2022-10-22T02:56:29.907Z,97397.22
2022-10-22T02:58:59.309Z,97410.25
2022-10-22T03:01:30.444Z,97405.19
2022-10-22T03:03:59.705Z,97392.91
2022-10-22T03:06:29.099Z,97386.09
2022-10-22T03:08:58.443Z,97382.34
2022-10-22T03:11:27.961Z,97375.91
2022-10-22T03:13:58.730Z,97376.75
2022-10-22T03:16:29.905Z,97377.38
2022-10-22T03:19:02.013Z,97370.38
2022-10-22T03:21:35.595Z,97360.75
2022-10-22T03:24:07.485Z,97369.53
2022-10-22T03:26:37.081Z,97366.56
2022-10-22T03:29:06.675Z,97364.59
2022-10-22T03:31:38.397Z,97362.22
2022-10-22T03:34:07.566Z,97376.72
2022-10-22T03:36:37.287Z,97376.75
2022-10-22T03:39:09.137Z,97368.94
2022-10-22T03:41:38.944Z,97374.22
2022-10-22T03:44:09.760Z,97372.31
2022-10-22T03:46:40.385Z,97371.84
2022-10-22T03:49:09.629Z,97368.63
2022-10-22T03:51:39.381Z,97373.09
2022-10-22T03:54:08.646Z,97377.72
2022-10-22T03:56:37.859Z,97374.63
2022-10-22T03:59:07.535Z,97376.91
2022-10-22T04:01:37.071Z,97385.72
2022-10-22T04:04:08.103Z,97377.31
2022-10-22T04:06:37.400Z,97380.28
2022-10-22T04:09:07.988Z,97388.88
2022-10-22T04:11:37.409Z,97385.50
2022-10-22T04:14:12.003Z,97382.84
2022-10-22T04:16:41.776Z,97380.28
2022-10-22T04:19:30.026Z,97384.06
2022-10-22T04:22:00.253Z,97389.28
2022-10-22T04:24:31.330Z,97383.31
2022-10-22T04:27:00.935Z,97392.38
2022-10-22T04:29:30.479Z,97388.84
2022-10-22T04:32:03.492Z,97383.91
2022-10-22T04:34:34.433Z,97394.44
2022-10-22T04:37:04.926Z,97398.06
2022-10-22T04:39:34.331Z,97397.56
2022-10-22T04:42:03.953Z,97390.50
2022-10-22T04:44:33.938Z,97405.25
2022-10-22T04:47:03.213Z,97398.75
2022-10-22T04:49:34.102Z,97393.66
2022-10-22T04:52:03.553Z,97393.56
2022-10-22T04:54:33.299Z,97394.16
2022-10-22T04:57:02.759Z,97388.53
2022-10-22T04:59:32.463Z,97391.81
2022-10-22T05:02:01.704Z,97382.22
2022-10-22T05:04:31.434Z,97387.13
2022-10-22T05:07:02.286Z,97388.25
2022-10-22T05:09:31.753Z,97368.31
2022-10-22T05:12:01.110Z,97365.91
2022-10-22T05:14:31.118Z,97368.00
2022-10-22T05:17:14.145Z,97374.84
2022-10-22T05:19:44.639Z,97364.75
2022-10-22T05:22:16.590Z,97368.66
2022-10-22T05:24:46.365Z,97362.34
2022-10-22T05:29:48.504Z,97357.78
2022-10-22T05:32:17.612Z,97347.50
2022-10-22T05:34:46.731Z,97359.28
2022-10-22T05:37:19.961Z,97366.63
2022-10-22T05:39:57.471Z,97370.38
2022-10-22T05:42:36.400Z,97380.03
2022-10-22T05:45:08.816Z,97372.56
2022-10-22T05:47:38.227Z,97384.13
2022-10-22T05:50:11.179Z,97387.47
2022-10-22T05:52:42.935Z,97377.38
2022-10-22T05:55:13.831Z,97395.16
2022-10-22T05:57:44.651Z,97392.56
2022-10-22T06:00:16.544Z,97397.59
2022-10-22T06:02:48.921Z,97394.31
2022-10-22T06:05:19.397Z,97398.94
2022-10-22T06:07:50.988Z,97412.53
2022-10-22T06:10:22.229Z,97415.00
2022-10-22T06:12:53.498Z,97393.94
2022-10-22T06:15:22.528Z,97392.41
2022-10-22T06:17:52.034Z,97394.63
2022-10-22T06:20:21.375Z,97402.19
2022-10-22T06:22:52.158Z,97404.59
2022-10-22T06:25:21.452Z,97402.28
2022-10-22T06:27:52.341Z,97393.34
2022-10-22T06:30:23.373Z,97406.94
2022-10-22T06:32:53.152Z,97394.53
2022-10-22T06:35:24.215Z,97399.97
2022-10-22T06:37:55.171Z,97414.25
2022-10-22T06:40:30.471Z,97409.91
2022-10-22T06:43:01.421Z,97415.28
2022-10-22T06:45:30.826Z,97431.59
2022-10-22T06:48:00.137Z,97426.78
2022-10-22T06:50:30.206Z,97434.19
2022-10-22T06:53:01.124Z,97432.09
2022-10-22T06:55:30.287Z,97451.84
2022-10-22T06:57:59.575Z,97451.94
2022-10-22T07:00:29.283Z,97441.63
2022-10-22T07:02:59.894Z,97442.03
2022-10-22T07:05:29.120Z,97445.59
2022-10-22T07:07:58.584Z,97441.38
2022-10-22T07:10:30.806Z,97438.13
2022-10-22T07:13:02.357Z,97452.25
2022-10-22T07:15:32.033Z,97451.63
2022-10-22T07:18:04.959Z,97443.03
2022-10-22T07:20:37.234Z,97443.88
2022-10-22T07:23:06.775Z,97451.66
2022-10-22T07:25:40.178Z,97462.69
2022-10-22T07:28:09.581Z,97463.72
2022-10-22T07:30:40.313Z,97461.09
2022-10-22T07:33:09.756Z,97456.72
2022-10-22T07:35:39.884Z,97457.75
2022-10-22T07:38:09.910Z,97460.56
2022-10-22T07:40:40.772Z,97472.13
2022-10-22T07:43:09.832Z,97466.19
2022-10-22T07:45:39.097Z,97479.19
2022-10-22T07:48:08.878Z,97483.09
2022-10-22T07:50:38.201Z,97491.94
2022-10-22T07:53:09.450Z,97498.69
2022-10-22T07:55:43.032Z,97500.38
2022-10-22T07:58:12.193Z,97508.19
2022-10-22T08:00:41.787Z,97515.88
2022-10-22T08:03:11.247Z,97522.91
2022-10-22T08:05:41.172Z,97531.00
2022-10-22T09:06:37.226Z,97581.44
2022-10-22T09:12:38.392Z,97574.88
2022-10-22T09:15:10.791Z,97578.38
2022-10-22T09:17:47.428Z,97586.47
2022-10-22T09:20:28.732Z,97589.34
2022-10-22T09:23:14.139Z,97593.94
2022-10-22T09:25:46.991Z,97583.44
2022-10-22T09:28:18.778Z,97586.44
2022-10-22T09:30:48.407Z,97593.75
2022-10-22T09:33:22.628Z,97585.25
2022-10-22T09:35:58.838Z,97578.06
2022-10-22T09:38:31.814Z,97590.88
2022-10-22T09:41:03.959Z,97600.53
2022-10-22T09:43:36.281Z,97600.38
2022-10-22T09:46:09.562Z,97594.19
2022-10-22T09:48:41.112Z,97585.84
2022-10-22T09:51:16.641Z,97580.59
2022-10-22T09:54:19.617Z,97578.88
2022-10-22T09:56:58.536Z,97593.09
2022-10-22T09:59:32.571Z,97595.81
2022-10-22T10:02:19.460Z,97596.22
2022-10-22T10:04:53.645Z,97603.88
2022-10-22T11:06:25.391Z,97635.72
2022-10-22T11:08:59.236Z,97637.78
2022-10-22T11:11:36.951Z,97641.66
2022-10-22T11:14:12.952Z,97645.50
2022-10-22T11:16:46.221Z,97641.78
2022-10-22T11:19:22.998Z,97640.03
2022-10-22T11:22:10.593Z,97633.50
2022-10-22T11:24:44.975Z,97630.81
2022-10-22T11:27:23.450Z,97630.34
2022-10-22T11:29:57.555Z,97630.16
2022-10-22T11:32:28.346Z,97633.09
2022-10-22T11:34:59.818Z,97631.25
2022-10-22T11:37:34.945Z,97631.22
2022-10-22T11:40:07.245Z,97631.66
2022-10-22T11:42:39.730Z,97626.94
2022-10-22T11:45:29.725Z,97627.72
2022-10-22T11:48:07.310Z,97631.09
2022-10-22T11:50:52.983Z,97634.72
2022-10-22T11:53:32.979Z,97640.03
2022-10-22T11:56:21.241Z,97634.13
2022-10-22T11:58:53.811Z,97632.38
2022-10-22T12:01:27.482Z,97636.44
2022-10-22T12:04:22.012Z,97637.03
2022-10-22T12:06:59.640Z,97639.28
2022-10-22T12:09:32.918Z,97643.47
2022-10-22T12:12:13.619Z,97643.78
2022-10-22T12:14:55.451Z,97638.34
2022-10-22T12:17:27.589Z,97638.75
2022-10-22T12:20:03.153Z,97644.00
2022-10-22T12:22:37.238Z,97646.94
2022-10-22T12:25:20.141Z,97645.97
2022-10-22T12:27:55.153Z,97652.75
2022-10-22T12:30:26.181Z,97657.13
2022-10-22T12:32:57.930Z,97658.09
2022-10-22T12:35:30.285Z,97653.31
2022-10-22T12:38:02.305Z,97657.59
2022-10-22T12:40:36.394Z,97665.00
2022-10-22T12:43:12.527Z,97660.00
2022-10-22T12:45:42.408Z,97667.06
2022-10-22T12:48:18.024Z,97672.84
2022-10-22T12:50:50.894Z,97672.22
2022-10-22T12:53:23.546Z,97673.50
2022-10-22T12:55:56.902Z,97672.56
2022-10-22T12:58:29.875Z,97668.94
2022-10-22T13:01:02.247Z,97668.16
2022-10-22T13:03:36.079Z,97668.56
2022-10-22T13:06:15.792Z,97667.41
2022-10-22T13:08:45.389Z,97667.97
2022-10-22T13:11:22.622Z,97661.72
2022-10-22T13:13:52.311Z,97664.03
2022-10-22T13:16:24.414Z,97659.47
2022-10-22T13:18:55.252Z,97658.53
2022-10-22T13:21:31.444Z,97663.38
2022-10-22T13:24:02.943Z,97663.69
2022-10-22T13:26:37.191Z,97667.63
2022-10-22T13:29:12.536Z,97678.31
2022-10-22T13:31:47.527Z,97678.41
2022-10-22T13:34:22.265Z,97670.38
2022-10-22T13:36:55.315Z,97665.34
2022-10-22T13:39:26.402Z,97668.06
2022-10-22T13:42:26.648Z,97663.06
2022-10-22T13:44:58.709Z,97667.84
2022-10-22T13:47:30.014Z,97665.56
2022-10-22T13:50:05.352Z,97669.81
2022-10-22T13:52:39.586Z,97675.28
2022-10-22T13:55:16.110Z,97676.50
2022-10-22T13:57:46.984Z,97683.81
2022-10-22T14:00:18.974Z,97681.16
2022-10-22T14:02:50.567Z,97687.50
2022-10-22T14:05:21.887Z,97697.69
2022-10-22T14:07:51.056Z,97702.47
2022-10-22T14:10:22.663Z,97704.09
2022-10-22T14:12:54.148Z,97711.75
2022-10-22T14:15:25.234Z,97716.03
2022-10-22T14:17:57.910Z,97726.28
2022-10-22T14:20:29.433Z,97725.88
2022-10-22T14:23:01.424Z,97732.31
2022-10-22T14:25:31.608Z,97730.22
2022-10-22T14:28:02.238Z,97732.53
2022-10-22T14:30:32.917Z,97742.31
2022-10-22T14:33:02.112Z,97742.81
2022-10-22T14:35:31.903Z,97740.03
2022-10-22T14:38:01.491Z,97734.28
2022-10-22T14:40:30.925Z,97731.75
2022-10-22T14:43:02.285Z,97730.94
2022-10-22T14:45:31.798Z,97728.53
2022-10-22T14:48:01.980Z,97736.06
2022-10-22T14:50:31.351Z,97735.22
2022-10-22T14:53:00.709Z,97751.81
2022-10-22T14:55:30.397Z,97747.72
2022-10-22T14:58:01.069Z,97748.69
2022-10-22T15:00:30.801Z,97753.63
2022-10-22T15:03:03.473Z,97753.63
2022-10-22T15:05:33.752Z,97759.78
2022-10-22T15:08:03.686Z,97756.81
2022-10-22T15:10:33.174Z,97761.38
2022-10-22T15:13:04.240Z,97766.84
2022-10-22T15:15:39.421Z,97766.69
2022-10-22T15:18:09.673Z,97769.69
2022-10-22T15:20:38.810Z,97764.22
2022-10-22T15:23:08.139Z,97761.69
2022-10-22T15:25:37.850Z,97755.06
2022-10-22T15:28:10.049Z,97762.53
2022-10-22T15:30:39.537Z,97747.28
2022-10-22T15:33:09.161Z,97743.94
2022-10-22T15:35:38.612Z,97746.66
2022-10-22T15:38:09.388Z,97749.81
2022-10-22T15:40:38.553Z,97744.41
2022-10-22T15:43:09.211Z,97752.50
2022-10-22T15:45:38.606Z,97742.25
2022-10-22T15:48:08.602Z,97735.22
2022-10-22T15:50:40.183Z,97737.25
2022-10-22T15:53:09.510Z,97750.13
2022-10-22T15:56:04.516Z,97762.47
2022-10-22T15:58:40.171Z,97764.75
2022-10-22T16:01:11.596Z,97784.38
2022-10-22T16:03:42.504Z,97787.66
2022-10-22T16:06:12.335Z,97789.56
2022-10-22T16:08:42.056Z,97791.72
2022-10-22T16:11:11.723Z,97800.59
2022-10-22T16:13:42.991Z,97810.91
2022-10-22T16:16:12.592Z,97813.41
2022-10-22T16:18:44.595Z,97824.22
2022-10-22T16:21:15.497Z,97830.47
2022-10-22T16:23:45.303Z,97837.81
2022-10-22T16:26:14.958Z,97848.56
2022-10-22T16:28:46.062Z,97852.81
2022-10-22T16:31:17.831Z,97861.16
2022-10-22T16:33:50.254Z,97854.09
2022-10-22T16:36:20.974Z,97858.59
2022-10-22T16:38:50.705Z,97858.44
2022-10-22T16:41:22.227Z,97868.00
2022-10-22T16:43:56.330Z,97871.94
2022-10-22T16:46:25.550Z,97872.53
2022-10-22T16:48:55.087Z,97864.66
2022-10-22T16:51:25.923Z,97865.78
2022-10-22T16:53:55.898Z,97870.41
2022-10-22T16:56:26.064Z,97875.16
2022-10-22T16:58:58.435Z,97886.75
2022-10-22T17:01:29.258Z,97891.09
2022-10-22T17:04:00.905Z,97888.78
2022-10-22T17:06:30.166Z,97888.16
2022-10-22T17:08:59.544Z,97891.34
2022-10-22T17:11:30.265Z,97898.13
2022-10-22T17:14:01.005Z,97896.28
2022-10-22T17:16:30.761Z,97901.13
2022-10-22T17:19:00.108Z,97901.44
2022-10-22T17:21:29.324Z,97890.72
2022-10-22T17:23:59.577Z,97899.22
2022-10-22T17:26:28.898Z,97897.97
2022-10-22T17:28:59.850Z,97895.50
2022-10-22T17:31:33.251Z,97911.66
2022-10-22T17:34:02.562Z,97908.50
2022-10-22T17:36:35.645Z,97902.66
2022-10-22T17:39:07.323Z,97907.78
2022-10-22T17:41:38.089Z,97911.34
2022-10-22T17:44:10.376Z,97916.56
2022-10-22T17:46:39.951Z,97918.94
2022-10-22T17:49:16.430Z,97921.31
2022-10-22T17:51:46.014Z,97930.56
2022-10-22T17:54:15.689Z,97932.56
2022-10-22T17:56:47.454Z,97923.22
2022-10-22T17:59:19.144Z,97936.06
2022-10-22T18:01:48.840Z,97936.97
2022-10-22T18:04:19.701Z,97943.19
2022-10-22T18:06:49.283Z,97945.50
2022-10-22T18:09:20.090Z,97948.13
2022-10-22T18:11:50.067Z,97944.72
2022-10-22T18:14:21.853Z,97944.59
2022-10-22T18:16:51.705Z,97961.19
2022-10-22T18:19:23.281Z,97952.44
2022-10-22T18:21:53.314Z,97949.06
2022-10-22T18:24:22.442Z,97945.25
2022-10-22T18:26:52.428Z,97950.56
2022-10-22T18:29:23.156Z,97953.72
2022-10-22T18:31:57.550Z,97945.69
2022-10-22T18:34:26.935Z,97955.97
2022-10-22T18:36:56.536Z,97956.31
2022-10-22T18:39:25.973Z,97960.97
2022-10-22T18:41:55.474Z,97962.25
2022-10-22T18:44:26.260Z,97962.78
2022-10-22T18:46:56.000Z,97968.38
2022-10-22T18:49:26.786Z,97973.75
2022-10-22T18:51:56.322Z,97984.22
2022-10-22T18:54:25.598Z,97978.41
2022-10-22T18:56:59.456Z,97975.06
2022-10-22T18:59:33.759Z,97982.25
2022-10-22T19:02:02.989Z,97985.53
2022-10-22T19:04:37.095Z,97993.69
2022-10-22T19:09:42.107Z,97987.66
2022-10-22T19:12:15.008Z,97988.25
2022-10-22T19:14:46.349Z,97987.91
2022-10-22T19:17:15.905Z,97985.19
2022-10-22T19:19:46.457Z,97995.88
2022-10-22T19:22:15.875Z,97993.28
2022-10-22T19:24:45.123Z,97998.28
2022-10-22T19:27:14.481Z,98004.03
2022-10-22T19:29:45.733Z,98008.41
2022-10-22T19:32:15.291Z,98013.41
2022-10-22T19:34:45.710Z,98005.16
2022-10-22T19:37:15.133Z,98014.09
2022-10-22T19:39:44.457Z,98011.63
2022-10-22T19:42:13.758Z,98010.81
2022-10-22T19:44:44.915Z,98016.88
2022-10-22T19:47:14.149Z,98021.25
2022-10-22T19:49:43.654Z,98025.94
2022-10-22T19:52:13.001Z,98032.34
2022-10-22T19:54:45.571Z,98025.25
2022-10-22T19:57:17.359Z,98028.66
2022-10-22T19:59:48.643Z,98025.31
2022-10-22T20:02:19.031Z,98030.84
2022-10-22T20:04:49.956Z,98031.44
2022-10-22T20:07:19.235Z,98038.06
2022-10-22T20:09:48.472Z,98039.00
2022-10-22T20:15:07.145Z,98040.28
2022-10-22T20:17:36.606Z,98040.47
2022-10-22T20:20:07.005Z,98042.19
2022-10-22T20:22:36.163Z,98043.88
2022-10-22T20:25:06.276Z,98052.34
2022-10-22T20:27:35.714Z,98048.75
2022-10-22T20:30:07.780Z,98048.59
2022-10-22T20:32:39.437Z,98053.31
2022-10-22T20:35:09.985Z,98056.84
2022-10-22T20:37:39.274Z,98062.19
2022-10-22T20:40:09.687Z,98068.34
2022-10-22T20:42:39.019Z,98068.56
2022-10-22T20:45:11.109Z,98070.31
2022-10-22T20:47:51.472Z,98073.25
2022-10-22T20:50:24.216Z,98076.19
2022-10-22T20:52:53.454Z,98074.88
2022-10-22T20:55:22.794Z,98071.56
2022-10-22T20:57:52.033Z,98080.03
2022-10-22T21:00:22.937Z,98094.41
2022-10-22T21:02:52.468Z,98092.28
2022-10-22T21:05:21.967Z,98084.59
2022-10-22T21:07:51.230Z,98082.25
2022-10-22T21:10:20.676Z,98089.84
2022-10-22T21:12:49.889Z,98082.75
2022-10-22T21:15:19.058Z,98076.28
2022-10-22T21:17:49.473Z,98081.81
2022-10-22T21:20:21.031Z,98079.66
2022-10-22T21:22:53.374Z,98089.06
2022-10-22T21:25:22.535Z,98086.38
2022-10-22T21:27:51.774Z,98086.59
2022-10-22T21:30:21.344Z,98086.81
2022-10-22T21:32:52.805Z,98083.22
2022-10-22T21:35:22.091Z,98085.16
2022-10-22T21:37:51.276Z,98086.31
2022-10-22T21:40:20.888Z,98084.81
2022-10-22T21:42:51.897Z,98094.78
2022-10-22T21:45:23.248Z,98092.91
2022-10-22T21:47:53.995Z,98098.94
2022-10-22T21:50:23.725Z,98091.84
2022-10-22T21:52:59.736Z,98099.84
2022-10-22T21:55:30.455Z,98101.03
2022-10-22T21:57:59.790Z,98111.50
2022-10-22T22:00:29.032Z,98120.34
2022-10-22T22:03:00.153Z,98110.78
2022-10-22T22:05:30.477Z,98116.63
2022-10-22T22:08:00.114Z,98110.13
2022-10-22T22:10:29.825Z,98107.69
2022-10-22T22:12:59.070Z,98102.09
2022-10-22T22:15:28.869Z,98099.84
2022-10-22T22:17:59.897Z,98104.81
2022-10-22T22:20:29.773Z,98094.78
2022-10-22T22:22:59.367Z,98100.44
2022-10-22T22:25:28.587Z,98092.34
2022-10-22T22:27:58.042Z,98086.84
2022-10-22T22:30:27.449Z,98088.06
2022-10-22T22:32:58.269Z,98099.97
2022-10-22T22:35:27.878Z,98094.38
2022-10-22T22:37:57.099Z,98097.06
2022-10-22T22:40:29.151Z,98096.25
2022-10-22T22:43:02.067Z,98098.38
2022-10-22T22:45:31.635Z,98098.25
2022-10-22T22:48:02.338Z,98089.03
2022-10-22T22:50:31.850Z,98095.00
2022-10-22T22:53:02.456Z,98097.00
2022-10-22T22:55:34.816Z,98089.28
2022-10-22T22:58:04.169Z,98085.09
2022-10-22T23:00:33.398Z,98092.88
2022-10-22T23:03:04.470Z,98094.38
2022-10-22T23:05:33.911Z,98092.91
2022-10-22T23:08:03.213Z,98096.88
2022-10-22T23:10:32.824Z,98085.59
2022-10-22T23:13:02.246Z,98097.19
2022-10-22T23:15:31.538Z,98088.78
2022-10-22T23:18:01.007Z,98080.28
2022-10-22T23:20:32.083Z,98078.78
2022-10-22T23:23:01.807Z,98069.25
2022-10-22T23:25:31.375Z,98073.03
2022-10-22T23:28:00.620Z,98068.28
2022-10-22T23:30:29.851Z,98072.38
2022-10-22T23:32:59.369Z,98067.91
2022-10-22T23:35:30.269Z,98072.25
2022-10-22T23:38:01.251Z,98059.63
2022-10-22T23:40:30.874Z,98064.56
2022-10-22T23:43:00.174Z,98058.34
2022-10-22T23:45:29.390Z,98064.25
2022-10-22T23:47:58.775Z,98063.16
2022-10-22T23:50:28.214Z,98070.50
2022-10-22T23:52:57.837Z,98071.91
2022-10-22T23:55:28.851Z,98088.38
2022-10-22T23:57:58.176Z,98090.66
